createdAt,value
2018-01-13T00:00:55.351Z,49.70
2018-01-13T00:03:21.523Z,55.30
2018-01-13T00:05:47.739Z,47.53
2018-01-13T00:08:14.637Z,50.57
2018-01-13T00:10:40.827Z,48.73
2018-01-13T00:13:07.739Z,52.90
2018-01-13T00:15:33.880Z,55.67
2018-01-13T00:18:00.051Z,51.47
2018-01-13T00:20:26.203Z,55.63
2018-01-13T00:22:52.357Z,51.10
2018-01-13T00:25:18.536Z,51.87
2018-01-13T00:27:45.456Z,58.87
2018-01-13T00:30:11.610Z,58.03
2018-01-13T00:32:38.540Z,49.97
2018-01-13T00:35:04.703Z,54.23
2018-01-13T00:37:31.591Z,54.00
2018-01-13T00:39:57.772Z,52.37
2018-01-13T00:42:23.951Z,56.23
2018-01-13T00:44:50.116Z,61.43
2018-01-13T00:47:16.299Z,58.10
2018-01-13T00:49:42.447Z,58.20
2018-01-13T00:52:08.596Z,54.97
2018-01-13T00:54:35.004Z,54.03
2018-01-13T00:57:01.192Z,53.13
2018-01-13T00:59:27.367Z,59.22
2018-01-13T01:01:53.562Z,58.63
2018-01-13T01:04:19.728Z,52.00
2018-01-13T01:06:46.625Z,50.93
2018-01-13T01:09:12.816Z,58.67
2018-01-13T01:11:39.696Z,57.23
2018-01-13T01:14:05.855Z,57.85
2018-01-13T01:16:32.035Z,54.93
2018-01-13T01:18:58.932Z,52.83
2018-01-13T01:21:25.084Z,50.87
2018-01-13T01:23:51.256Z,65.77
2018-01-13T01:26:17.397Z,57.73
2018-01-13T01:28:43.547Z,57.87
2018-01-13T01:31:09.724Z,59.87
2018-01-13T01:33:36.620Z,58.50
2018-01-13T01:36:02.793Z,51.77
2018-01-13T01:38:28.986Z,52.40
2018-01-13T01:40:55.154Z,53.47
2018-01-13T01:43:21.308Z,58.67
2018-01-13T01:45:47.492Z,56.70
2018-01-13T01:48:24.835Z,56.57
2018-01-13T01:50:51.753Z,52.50
2018-01-13T01:53:18.657Z,58.83
2018-01-13T01:55:44.883Z,58.67
2018-01-13T01:58:11.082Z,54.23
2018-01-13T02:00:37.239Z,57.13
2018-01-13T02:03:04.135Z,55.23
2018-01-13T02:05:30.307Z,55.67
2018-01-13T02:07:56.456Z,46.23
2018-01-13T02:10:23.401Z,55.10
2018-01-13T02:12:49.527Z,59.10
2018-01-13T02:15:15.684Z,54.40
2018-01-13T02:17:42.567Z,52.17
2018-01-13T02:20:08.748Z,57.43
2018-01-13T02:22:35.644Z,56.77
2018-01-13T02:25:01.800Z,47.17
2018-01-13T02:27:27.976Z,52.67
2018-01-13T02:29:54.139Z,47.05
2018-01-13T02:32:20.296Z,45.77
2018-01-13T02:34:46.460Z,58.53
2018-01-13T02:37:13.391Z,54.40
2018-01-13T02:39:39.564Z,60.53
2018-01-13T02:42:06.455Z,53.37
2018-01-13T02:44:32.635Z,52.83
2018-01-13T02:46:58.825Z,63.40
2018-01-13T02:49:25.012Z,60.83
2018-01-13T02:51:51.180Z,65.10
2018-01-13T02:54:17.332Z,59.53
2018-01-13T02:56:43.596Z,53.77
2018-01-13T02:59:09.783Z,59.13
2018-01-13T03:01:35.952Z,56.00
2018-01-13T03:04:02.875Z,63.87
2018-01-13T03:06:29.043Z,64.40
2018-01-13T03:08:55.213Z,55.75
2018-01-13T03:11:21.386Z,60.55
2018-01-13T03:13:47.556Z,55.60
2018-01-13T03:16:13.731Z,62.47
2018-01-13T03:18:39.884Z,59.30
2018-01-13T03:21:06.044Z,61.20
2018-01-13T03:23:32.956Z,64.85
2018-01-13T03:25:59.148Z,68.90
2018-01-13T03:28:25.306Z,58.50
2018-01-13T03:30:51.471Z,69.07
2018-01-13T03:33:17.679Z,63.27
2018-01-13T03:35:43.853Z,76.22
2018-01-13T03:38:10.772Z,61.45
2018-01-13T03:40:37.740Z,60.27
2018-01-13T03:43:03.895Z,66.73
2018-01-13T03:45:30.064Z,70.00
2018-01-13T03:47:57.027Z,79.37
2018-01-13T03:50:23.200Z,62.20
2018-01-13T03:52:49.704Z,70.15
2018-01-13T03:55:15.895Z,69.03
2018-01-13T03:57:43.816Z,73.30
2018-01-13T04:00:09.963Z,81.97
2018-01-13T04:02:36.879Z,79.03
2018-01-13T04:05:03.043Z,85.28
2018-01-13T04:07:29.952Z,83.37
2018-01-13T04:09:56.864Z,85.07
2018-01-13T04:12:23.020Z,83.10
2018-01-13T04:14:49.192Z,96.90
2018-01-13T04:17:15.362Z,95.43
2018-01-13T04:19:41.527Z,94.68
2018-01-13T04:22:08.414Z,89.17
2018-01-13T04:24:34.588Z,105.30
2018-01-13T04:27:01.488Z,100.33
2018-01-13T04:29:27.660Z,95.12
2018-01-13T04:31:53.836Z,98.30
2018-01-13T04:34:20.029Z,98.75
2018-01-13T04:36:46.210Z,100.07
2018-01-13T04:39:12.399Z,93.37
2018-01-13T04:41:38.559Z,95.87
2018-01-13T04:44:05.453Z,96.63
2018-01-13T04:46:31.640Z,102.82
2018-01-13T04:48:57.795Z,89.90
2018-01-13T04:51:23.968Z,99.53
2018-01-13T04:53:50.144Z,101.20
2018-01-13T04:56:16.300Z,89.95
2018-01-13T04:58:43.419Z,98.12
2018-01-13T05:01:09.629Z,104.43
2018-01-13T05:03:35.792Z,97.35
2018-01-13T05:06:01.951Z,102.03
2018-01-13T05:08:28.119Z,104.67
2018-01-13T05:10:54.279Z,97.77
2018-01-13T05:13:21.191Z,102.03
2018-01-13T05:15:47.388Z,91.03
2018-01-13T05:18:13.532Z,104.40
2018-01-13T05:20:39.700Z,111.82
2018-01-13T05:23:05.875Z,106.03
2018-01-13T05:25:32.056Z,107.10
2018-01-13T05:27:58.215Z,102.03
2018-01-13T05:30:24.482Z,118.07
2018-01-13T05:32:50.660Z,110.72
2018-01-13T05:35:16.816Z,114.47
2018-01-13T05:37:43.319Z,105.50
2018-01-13T05:40:09.504Z,110.10
2018-01-13T05:42:36.401Z,107.93
2018-01-13T05:45:02.587Z,109.65
2018-01-13T05:47:29.487Z,108.93
2018-01-13T05:49:55.657Z,110.95
2018-01-13T05:52:22.584Z,113.37
2018-01-13T05:54:48.751Z,122.62
2018-01-13T05:57:15.663Z,122.82
2018-01-13T05:59:42.100Z,114.68
2018-01-13T06:02:08.295Z,125.50
2018-01-13T06:04:34.460Z,106.13
2018-01-13T06:07:01.399Z,116.80
2018-01-13T06:09:27.567Z,113.77
2018-01-13T06:11:53.719Z,122.80
2018-01-13T06:14:20.639Z,123.03
2018-01-13T06:16:46.816Z,121.90
2018-01-13T06:19:12.992Z,118.33
2018-01-13T06:21:39.156Z,123.13
2018-01-13T06:24:05.321Z,123.72
2018-01-13T06:26:31.480Z,121.30
2018-01-13T06:28:58.408Z,121.63
2018-01-13T06:31:24.572Z,122.17
2018-01-13T06:33:50.770Z,127.03
2018-01-13T06:36:17.727Z,118.73
2018-01-13T06:38:43.891Z,129.18
2018-01-13T06:41:10.084Z,120.67
2018-01-13T06:43:36.995Z,121.63
2018-01-13T06:46:03.156Z,118.27
2018-01-13T06:48:29.316Z,127.63
2018-01-13T06:50:55.500Z,119.00
2018-01-13T06:53:21.664Z,108.63
2018-01-13T06:55:48.560Z,108.73
2018-01-13T06:58:14.756Z,108.43
2018-01-13T07:00:41.716Z,113.17
2018-01-13T07:03:07.895Z,119.20
2018-01-13T07:05:34.104Z,110.45
2018-01-13T07:08:00.280Z,103.78
2018-01-13T07:10:26.471Z,111.90
2018-01-13T07:12:52.691Z,115.37
2018-01-13T07:15:18.874Z,118.73
2018-01-13T07:17:45.052Z,104.73
2018-01-13T07:20:11.236Z,118.63
2018-01-13T07:22:37.438Z,118.70
2018-01-13T07:25:03.636Z,103.15
2018-01-13T07:27:30.543Z,113.43
2018-01-13T07:29:56.703Z,107.10
2018-01-13T07:32:23.632Z,114.62
2018-01-13T07:34:50.599Z,115.35
2018-01-13T07:37:16.800Z,112.55
2018-01-13T07:39:42.952Z,124.15
2018-01-13T07:42:09.176Z,107.07
2018-01-13T07:44:36.120Z,130.57
2018-01-13T07:47:02.288Z,123.80
2018-01-13T07:49:29.244Z,117.40
2018-01-13T07:51:55.421Z,111.80
2018-01-13T07:54:21.608Z,114.13
2018-01-13T07:56:47.775Z,112.23
2018-01-13T07:59:13.956Z,118.68
2018-01-13T08:01:40.343Z,109.73
2018-01-13T08:04:06.597Z,113.30
2018-01-13T08:06:32.799Z,114.83
2018-01-13T08:08:59.721Z,126.78
2018-01-13T08:11:25.904Z,123.07
2018-01-13T08:13:52.066Z,113.20
2018-01-13T08:16:18.245Z,117.27
2018-01-13T08:18:44.439Z,112.85
2018-01-13T08:21:11.380Z,132.47
2018-01-13T08:23:37.570Z,127.05
2018-01-13T08:26:03.768Z,108.00
2018-01-13T08:28:29.964Z,113.40
2018-01-13T08:30:56.117Z,117.70
2018-01-13T08:33:22.307Z,104.47
2018-01-13T08:35:48.476Z,118.25
2018-01-13T08:38:14.663Z,115.90
2018-01-13T08:40:40.857Z,112.43
2018-01-13T08:43:07.053Z,106.20
2018-01-13T08:45:33.234Z,110.83
2018-01-13T08:47:59.436Z,112.25
2018-01-13T08:50:25.615Z,118.05
2018-01-13T08:52:51.774Z,112.80
2018-01-13T08:55:17.992Z,115.75
2018-01-13T08:57:44.179Z,114.07
2018-01-13T09:00:11.155Z,133.20
2018-01-13T09:02:37.416Z,123.50
2018-01-13T09:05:03.636Z,115.05
2018-01-13T09:07:29.795Z,117.78
2018-01-13T09:09:55.982Z,116.80
2018-01-13T09:12:22.140Z,120.90
2018-01-13T09:14:48.346Z,118.37
2018-01-13T09:17:16.030Z,108.95
2018-01-13T09:19:42.203Z,109.28
2018-01-13T09:22:08.380Z,110.73
2018-01-13T09:24:34.560Z,101.97
2018-01-13T09:27:01.443Z,106.27
2018-01-13T09:29:27.603Z,108.10
2018-01-13T09:31:53.788Z,117.57
2018-01-13T09:34:19.948Z,110.80
2018-01-13T09:36:46.136Z,113.53
2018-01-13T09:39:13.062Z,106.45
2018-01-13T09:41:40.700Z,111.83
2018-01-13T09:44:06.871Z,113.13
2018-01-13T09:46:33.109Z,116.30
2018-01-13T09:48:59.268Z,117.20
2018-01-13T09:51:25.431Z,115.50
2018-01-13T09:53:52.352Z,117.37
2018-01-13T09:56:18.514Z,104.57
2018-01-13T09:58:44.707Z,111.45
2018-01-13T10:01:10.908Z,111.47
2018-01-13T10:03:37.198Z,115.20
2018-01-13T10:06:03.419Z,106.90
2018-01-13T10:08:29.595Z,123.80
2018-01-13T10:10:55.741Z,117.62
2018-01-13T10:13:21.912Z,122.00
2018-01-13T10:15:48.130Z,112.70
2018-01-13T10:18:15.037Z,110.40
2018-01-13T10:20:41.237Z,115.03
2018-01-13T10:23:07.444Z,117.28
2018-01-13T10:25:34.373Z,151.32
2018-01-13T10:28:00.523Z,130.23
2018-01-13T10:30:26.707Z,130.87
2018-01-13T10:32:52.888Z,138.70
2018-01-13T10:35:19.808Z,125.90
2018-01-13T10:37:45.984Z,125.62
2018-01-13T10:40:12.894Z,132.80
2018-01-13T10:42:39.072Z,125.22
2018-01-13T10:45:06.014Z,133.93
2018-01-13T10:47:33.004Z,139.40
2018-01-13T10:49:59.188Z,118.80
2018-01-13T10:52:25.428Z,137.75
2018-01-13T10:54:51.599Z,133.23
2018-01-13T10:57:17.791Z,139.20
2018-01-13T10:59:44.080Z,121.62
2018-01-13T11:02:10.948Z,129.45
2018-01-13T11:04:37.275Z,123.22
2018-01-13T11:07:03.471Z,133.60
2018-01-13T11:09:29.664Z,134.95
2018-01-13T11:11:55.844Z,137.40
2018-01-13T11:14:22.032Z,151.90
2018-01-13T11:16:48.208Z,135.23
2018-01-13T11:19:14.404Z,143.07
2018-01-13T11:21:40.584Z,136.65
2018-01-13T11:24:06.773Z,138.90
2018-01-13T11:26:33.687Z,120.27
2018-01-13T11:29:00.644Z,141.88
2018-01-13T11:31:26.805Z,129.70
2018-01-13T11:33:52.984Z,143.00
2018-01-13T11:36:19.187Z,149.27
2018-01-13T11:38:46.099Z,123.83
2018-01-13T11:41:12.272Z,126.32
2018-01-13T11:43:38.464Z,127.87
2018-01-13T11:46:04.634Z,131.70
2018-01-13T11:48:30.803Z,137.10
2018-01-13T11:50:56.979Z,143.68
2018-01-13T11:53:23.173Z,134.80
2018-01-13T11:55:49.341Z,126.33
2018-01-13T11:58:15.524Z,131.30
2018-01-13T12:00:41.736Z,119.50
2018-01-13T12:03:08.688Z,133.95
2018-01-13T12:05:35.024Z,125.30
2018-01-13T12:08:01.236Z,134.00
2018-01-13T12:10:27.424Z,127.15
2018-01-13T12:12:53.613Z,133.43
2018-01-13T12:15:19.819Z,116.93
2018-01-13T12:17:45.992Z,127.43
2018-01-13T12:20:12.925Z,117.13
2018-01-13T12:22:39.152Z,139.50
2018-01-13T12:25:05.367Z,114.70
2018-01-13T12:27:31.527Z,125.90
2018-01-13T12:29:57.721Z,119.13
2018-01-13T12:32:23.888Z,120.87
2018-01-13T12:34:50.065Z,125.80
2018-01-13T12:37:17.003Z,125.23
2018-01-13T12:39:43.923Z,132.53
2018-01-13T12:42:10.132Z,123.53
2018-01-13T12:44:36.307Z,118.33
2018-01-13T12:47:02.481Z,114.77
2018-01-13T12:49:28.700Z,114.18
2018-01-13T12:51:54.885Z,115.43
2018-01-13T12:54:21.072Z,111.62
2018-01-13T12:56:47.256Z,115.63
2018-01-13T12:59:13.467Z,110.78
2018-01-13T13:01:39.655Z,108.30
2018-01-13T13:04:06.600Z,118.70
2018-01-13T13:06:32.859Z,103.55
2018-01-13T13:08:59.051Z,106.50
2018-01-13T13:11:26.711Z,106.07
2018-01-13T13:13:52.908Z,112.40
2018-01-13T13:16:19.851Z,100.87
2018-01-13T13:18:46.056Z,111.25
2018-01-13T13:21:12.964Z,100.87
2018-01-13T13:23:39.136Z,106.43
2018-01-13T13:26:05.331Z,100.40
2018-01-13T13:28:31.501Z,96.05
2018-01-13T13:30:58.411Z,94.72
2018-01-13T13:33:24.608Z,106.15
2018-01-13T13:35:51.576Z,96.15
2018-01-13T13:38:17.828Z,81.12
2018-01-13T13:40:44.024Z,93.87
2018-01-13T13:43:10.215Z,95.10
2018-01-13T13:45:36.384Z,96.60
2018-01-13T13:48:03.307Z,91.65
2018-01-13T13:50:29.471Z,96.60
2018-01-13T13:52:56.401Z,84.72
2018-01-13T13:55:22.604Z,90.07
2018-01-13T13:57:48.775Z,89.25
2018-01-13T14:00:15.698Z,88.03
2018-01-13T14:02:41.896Z,96.28
2018-01-13T14:05:08.073Z,92.55
2018-01-13T14:07:34.325Z,93.87
2018-01-13T14:10:01.148Z,91.60
2018-01-13T14:12:26.704Z,85.30
2018-01-13T14:14:53.645Z,77.20
2018-01-13T14:17:19.887Z,78.47
2018-01-13T14:19:46.811Z,75.30
2018-01-13T14:22:13.819Z,69.85
2018-01-13T14:24:40.027Z,73.57
2018-01-13T14:27:06.929Z,74.05
2018-01-13T14:29:33.096Z,76.55
2018-01-13T14:31:59.292Z,70.80
2018-01-13T14:34:25.465Z,71.53
2018-01-13T14:36:51.635Z,68.70
2018-01-13T14:39:17.856Z,70.82
2018-01-13T14:41:44.057Z,70.40
2018-01-13T14:44:10.233Z,61.22
2018-01-13T14:46:36.445Z,63.47
2018-01-13T14:49:03.375Z,69.47
2018-01-13T14:51:29.582Z,65.22
2018-01-13T14:53:55.787Z,64.97
2018-01-13T14:56:21.975Z,59.38
2018-01-13T14:58:48.149Z,60.75
2018-01-13T15:01:14.359Z,59.90
2018-01-13T15:03:41.266Z,63.13
2018-01-13T15:06:07.456Z,55.83
2018-01-13T15:08:34.471Z,52.78
2018-01-13T15:11:01.444Z,59.22
2018-01-13T15:13:28.446Z,56.42
2018-01-13T15:15:54.696Z,57.25
2018-01-13T15:18:20.868Z,59.30
2018-01-13T15:20:47.799Z,54.58
2018-01-13T15:23:13.988Z,58.92
2018-01-13T15:25:40.201Z,55.05
2018-01-13T15:28:07.127Z,49.33
2018-01-13T15:30:34.054Z,48.55
2018-01-13T15:33:00.233Z,47.45
2018-01-13T15:35:26.467Z,50.22
2018-01-13T15:37:52.664Z,46.30
2018-01-13T15:40:19.627Z,49.83
2018-01-13T15:42:46.575Z,50.03
2018-01-13T15:45:12.804Z,46.83
2018-01-13T15:47:40.462Z,43.83
2018-01-13T15:50:06.643Z,44.17
2018-01-13T15:52:32.827Z,47.53
2018-01-13T15:54:59.003Z,41.70
2018-01-13T15:57:25.195Z,46.37
2018-01-13T15:59:53.925Z,45.53
2018-01-13T16:02:22.805Z,40.25
2018-01-13T16:04:51.598Z,42.60
2018-01-13T16:07:19.265Z,39.83
2018-01-13T16:09:49.223Z,41.00
2018-01-13T16:12:18.431Z,44.85
2018-01-13T16:14:47.179Z,45.05
2018-01-13T16:17:15.976Z,41.22
2018-01-13T16:19:45.054Z,43.17
2018-01-13T16:22:13.662Z,42.50
2018-01-13T16:24:42.146Z,38.92
2018-01-13T16:27:10.210Z,47.00
2018-01-13T16:29:38.945Z,39.17
2018-01-13T16:32:07.400Z,39.90
2018-01-13T16:34:36.845Z,41.95
2018-01-13T16:37:05.459Z,46.10
2018-01-13T16:39:33.890Z,45.33
2018-01-13T16:42:01.352Z,37.28
2018-01-13T16:44:28.282Z,40.00
2018-01-13T16:46:54.501Z,34.70
2018-01-13T16:49:20.707Z,42.58
2018-01-13T16:51:46.890Z,36.88
2018-01-13T16:54:13.831Z,36.83
2018-01-13T16:56:40.011Z,40.40
2018-01-13T16:59:06.199Z,37.42
2018-01-13T17:01:32.406Z,41.60
2018-01-13T17:03:58.563Z,42.50
2018-01-13T17:06:24.742Z,34.67
2018-01-13T17:08:50.947Z,36.08
2018-01-13T17:11:17.200Z,38.30
2018-01-13T17:13:43.452Z,36.40
2018-01-13T17:16:09.632Z,36.47
2018-01-13T17:18:35.832Z,36.15
2018-01-13T17:21:02.032Z,34.88
2018-01-13T17:23:28.947Z,33.67
2018-01-13T17:25:55.155Z,33.65
2018-01-13T17:28:21.373Z,33.97
2018-01-13T17:30:47.571Z,36.67
2018-01-13T17:33:14.507Z,40.60
2018-01-13T17:35:40.731Z,37.80
2018-01-13T17:38:06.937Z,39.40
2018-01-13T17:40:33.140Z,34.05
2018-01-13T17:42:59.368Z,36.08
2018-01-13T17:45:26.278Z,42.58
2018-01-13T17:47:52.464Z,33.38
2018-01-13T17:50:18.698Z,34.65
2018-01-13T17:52:44.925Z,30.08
2018-01-13T17:55:11.870Z,40.28
2018-01-13T17:57:38.818Z,33.90
2018-01-13T18:00:05.020Z,34.60
2018-01-13T18:02:31.188Z,33.58
2018-01-13T18:04:58.128Z,31.05
2018-01-13T18:07:25.064Z,42.10
2018-01-13T18:09:51.252Z,37.42
2018-01-13T18:12:17.624Z,35.67
2018-01-13T18:14:43.848Z,34.03
2018-01-13T18:17:10.017Z,40.28
2018-01-13T18:19:36.177Z,37.58
2018-01-13T18:22:02.373Z,37.85
2018-01-13T18:24:29.295Z,39.40
2018-01-13T18:26:55.508Z,37.13
2018-01-13T18:29:21.672Z,33.45
2018-01-13T18:31:47.841Z,34.00
2018-01-13T18:34:14.794Z,36.17
2018-01-13T18:36:41.029Z,34.80
2018-01-13T18:39:07.967Z,38.33
2018-01-13T18:41:34.965Z,41.05
2018-01-13T18:44:01.141Z,33.05
2018-01-13T18:46:27.375Z,36.88
2018-01-13T18:48:53.586Z,36.95
2018-01-13T18:51:19.758Z,35.92
2018-01-13T18:53:46.679Z,32.45
2018-01-13T18:56:12.843Z,32.78
2018-01-13T18:58:39.100Z,36.92
2018-01-13T19:01:06.012Z,29.23
2018-01-13T19:03:32.247Z,35.00
2018-01-13T19:05:58.447Z,33.28
2018-01-13T19:08:24.679Z,28.83
2018-01-13T19:10:50.919Z,32.75
2018-01-13T19:13:17.187Z,30.55
2018-01-13T19:15:43.413Z,29.90
2018-01-13T19:18:09.619Z,29.00
2018-01-13T19:20:35.877Z,31.50
2018-01-13T19:23:02.107Z,33.63
2018-01-13T19:25:28.332Z,40.40
2018-01-13T19:27:54.539Z,29.20
2018-01-13T19:30:20.756Z,33.97
2018-01-13T19:32:46.984Z,28.65
2018-01-13T19:35:13.940Z,29.20
2018-01-13T19:37:40.872Z,28.67
2018-01-13T19:40:07.857Z,29.48
2018-01-13T19:42:34.045Z,33.03
2018-01-13T19:45:00.265Z,35.38
2018-01-13T19:47:26.468Z,31.10
2018-01-13T19:49:52.624Z,29.98
2018-01-13T19:52:18.877Z,34.05
2018-01-13T19:54:45.069Z,26.75
2018-01-13T19:57:11.280Z,30.85
2018-01-13T19:59:38.228Z,30.37
2018-01-13T20:02:04.488Z,34.00
2018-01-13T20:04:31.431Z,29.37
2018-01-13T20:06:57.600Z,30.25
2018-01-13T20:09:23.788Z,29.25
2018-01-13T20:11:50.728Z,33.10
2018-01-13T20:14:17.036Z,31.48
2018-01-13T20:16:44.022Z,33.90
2018-01-13T20:19:10.964Z,35.03
2018-01-13T20:21:37.905Z,31.45
2018-01-13T20:24:04.131Z,28.25
2018-01-13T20:26:31.068Z,29.30
2018-01-13T20:28:57.291Z,28.08
2018-01-13T20:31:23.547Z,28.38
2018-01-13T20:33:49.732Z,29.90
2018-01-13T20:36:15.935Z,26.50
2018-01-13T20:38:42.928Z,31.90
2018-01-13T20:41:09.128Z,26.35
2018-01-13T20:43:36.055Z,26.35
2018-01-13T20:46:02.257Z,28.80
2018-01-13T20:48:28.439Z,27.55
2018-01-13T20:50:54.668Z,24.52
2018-01-13T20:53:20.840Z,27.40
2018-01-13T20:55:47.043Z,30.08
2018-01-13T20:58:14.039Z,23.70
2018-01-13T21:00:40.248Z,22.17
2018-01-13T21:03:06.428Z,22.35
2018-01-13T21:05:32.628Z,23.65
2018-01-13T21:07:58.844Z,19.92
2018-01-13T21:10:25.024Z,19.77
2018-01-13T21:12:51.210Z,21.00
2018-01-13T21:15:17.499Z,18.15
2018-01-13T21:17:43.772Z,17.37
2018-01-13T21:20:10.717Z,19.80
2018-01-13T21:22:37.664Z,20.83
2018-01-13T21:25:04.596Z,22.55
2018-01-13T21:27:30.805Z,16.35
2018-01-13T21:29:57.055Z,16.15
2018-01-13T21:32:23.239Z,17.83
2018-01-13T21:34:49.432Z,19.35
2018-01-13T21:37:15.627Z,16.37
2018-01-13T21:39:41.808Z,15.98
2018-01-13T21:42:08.009Z,18.20
2018-01-13T21:44:34.212Z,24.40
2018-01-13T21:47:00.424Z,16.62
2018-01-13T21:49:27.343Z,17.80
2018-01-13T21:51:53.540Z,19.00
2018-01-13T21:54:19.736Z,23.30
2018-01-13T21:56:46.672Z,20.08
2018-01-13T21:59:12.896Z,20.95
2018-01-13T22:01:40.561Z,21.10
2018-01-13T22:04:06.744Z,19.23
2018-01-13T22:06:32.956Z,16.12
2018-01-13T22:08:59.883Z,16.92
2018-01-13T22:11:26.092Z,14.80
2018-01-13T22:13:52.324Z,17.67
2018-01-13T22:16:18.568Z,17.85
2018-01-13T22:18:44.776Z,15.82
2018-01-13T22:21:10.980Z,17.02
2018-01-13T22:23:37.938Z,17.83
2018-01-13T22:26:04.196Z,19.45
2018-01-13T22:28:30.571Z,21.33
2018-01-13T22:30:56.761Z,14.73
2018-01-13T22:33:22.954Z,16.62
2018-01-13T22:35:50.667Z,16.40
2018-01-13T22:38:16.872Z,19.45
2018-01-13T22:40:43.807Z,17.08
2018-01-13T22:43:10.031Z,19.65
2018-01-13T22:45:36.220Z,17.42
2018-01-13T22:48:03.140Z,18.42
2018-01-13T22:50:30.092Z,17.62
2018-01-13T22:52:56.299Z,19.52
2018-01-13T22:55:22.491Z,16.25
2018-01-13T22:57:48.696Z,15.32
2018-01-13T23:00:15.612Z,15.73
2018-01-13T23:02:41.828Z,16.30
2018-01-13T23:05:08.054Z,15.85
2018-01-13T23:07:34.229Z,16.92
2018-01-13T23:10:00.437Z,18.27
2018-01-13T23:12:26.668Z,16.62
2018-01-13T23:14:52.874Z,14.95
2018-01-13T23:17:19.118Z,17.98
2018-01-13T23:19:45.322Z,17.73
2018-01-13T23:22:12.256Z,18.00
2018-01-13T23:24:39.184Z,19.33
2018-01-13T23:27:17.822Z,17.37
2018-01-13T23:29:44.042Z,16.00
2018-01-13T23:32:10.243Z,20.12
2018-01-13T23:34:36.456Z,14.65
2018-01-13T23:37:03.381Z,13.10
2018-01-13T23:39:29.555Z,13.52
2018-01-13T23:41:55.784Z,12.10
2018-01-13T23:44:22.000Z,17.70
2018-01-13T23:46:48.919Z,14.65
2018-01-13T23:49:15.123Z,14.68
2018-01-13T23:51:41.301Z,14.87
2018-01-13T23:54:08.278Z,15.50
2018-01-13T23:56:34.534Z,17.85
2018-01-13T23:59:00.730Z,16.20
